www.srh.weather.gov   
NOAA logo - Click to go to the NOAA homepage   NWS logo
Other Surface Observations
Enter Your "City, ST" or zip code   
Current Version              Previous Version:    01  02  03  04  05  06  07  08  09  10  11  12  13  14  15  16  17  18  19  20  21  22  23  24  25  26  27  28  29  30  
   31  32  33  34  35  36  37  38  39  40  41  42  43  44  45  46  47  48  49  50  51  52  53  54  55  56  57  58  59  60  
[Printable]
823
SXUS55 KTFX 261138
OSOTFX
AREA AWOS OBSERVATIONS
NATIONAL WEATHER SERVICE GREAT FALLS MT
0435 AM MST WED NOV 26 2014

METAR KPWD 261130Z AUTO 10SM M12/M14 A3025 RMK PLENTYWOOD
METAR KPO1 261130Z AUTO 8SM M08/M10 A3025 RMK POPLAR
METAR K1S3 261130Z AUTO 00000KT 10SM M02/M04 A3018 RMK FORSYTH
METAR KS71 261130Z AUTO 00000KT 2SM M03/M04 A3021 RMK CHINOOK
METAR K6S0 261130Z AUTO 03003KT 1SM M04/M04 A3013 RMK BIG TIMBER
METAR K79S 261130Z AUTO 00000KT 4SM M01/M02 A3019 RMK FORT BENTON
METAR KEKS 261130Z AUTO 28003KT 10SM 02/M01 A3013 RMK ENNIS
METAR K38S 261130Z AUTO 00000KT 1 1/2SM M02/M02 A3012 RMK DEER LODGE
METAR KS59 261130Z AUTO 00000KT 2 1/2SM 00/M01 A3017 RMK LIBBY
METAR K88M 261130Z AUTO 00000KT 2 1/2SM 00/M01 A3017 RMK EUREKA



National Weather Service
Disclaimer
Last Modified: August 31, 2005
Privacy Policy